Time;durP1;ratioP1;P1;durP2;ratioP2;P2;SDS_P1;SDS_P2;PMS_P1;PMS_P2;Temp;Humidity;BMP_temperature;BMP_pressure;BME280_temperature;BME280_humidity;BME280_pressure;Samples;Min_cycle;Max_cycle;Signal;HPM_P1;HPM_P2
2021/04/05 00:00:20;;;;;;;3.92;2.72;;;;;;;20.44;60.16;100620.72;1819248;78;21131;-60
2021/04/05 00:02:49;;;;;;;3.80;2.15;;;;;;;20.40;60.12;100620.55;1814486;78;21137;-60
2021/04/05 00:05:23;;;;;;;3.55;2.47;;;;;;;20.36;60.10;100620.13;1810248;78;21190;-60
2021/04/05 00:07:50;;;;;;;3.45;2.20;;;;;;;20.31;60.10;100621.08;1811549;77;21612;-58
2021/04/05 00:10:25;;;;;;;2.52;2.02;;;;;;;20.32;60.11;100622.72;1778899;79;21133;-59
2021/04/05 00:12:52;;;;;;;2.77;1.72;;;;;;;20.37;60.23;100621.16;1789124;79;21144;-59
2021/04/05 00:15:19;;;;;;;2.95;2.22;;;;;;;20.45;60.32;100623.73;1818413;77;21086;-59
2021/04/05 00:17:46;;;;;;;3.50;1.98;;;;;;;20.54;60.34;100620.40;1818070;78;20992;-59
2021/04/05 00:20:16;;;;;;;3.17;2.17;;;;;;;20.63;60.27;100620.42;1815092;77;21194;-59
2021/04/05 00:22:43;;;;;;;3.17;2.35;;;;;;;20.73;60.13;100621.50;1816409;77;21616;-59
2021/04/05 00:25:11;;;;;;;3.77;2.47;;;;;;;20.79;59.94;100614.10;1815373;77;21164;-59
2021/04/05 00:27:39;;;;;;;3.30;2.27;;;;;;;20.86;59.76;100616.41;1824270;78;21131;-59
2021/04/05 00:30:10;;;;;;;2.90;2.30;;;;;;;20.91;59.57;100620.41;1825476;78;21195;-58
2021/04/05 00:32:36;;;;;;;2.95;2.20;;;;;;;20.95;59.40;100612.52;1820373;78;21198;-61
2021/04/05 00:35:06;;;;;;;3.12;2.12;;;;;;;21.01;59.26;100601.27;1820567;78;21151;-59
2021/04/05 00:37:33;;;;;;;3.17;2.00;;;;;;;21.05;59.14;100605.83;1824151;78;21554;-59
2021/04/05 00:39:59;;;;;;;3.08;2.17;;;;;;;21.10;59.00;100602.09;1825466;78;21134;-59
2021/04/05 00:42:26;;;;;;;2.33;1.77;;;;;;;21.15;58.87;100597.24;1822651;78;23546;-59
2021/04/05 00:44:52;;;;;;;3.40;2.05;;;;;;;21.19;58.78;100596.83;1758448;78;21186;-59
2021/04/05 00:47:19;;;;;;;2.65;1.90;;;;;;;21.23;58.64;100595.04;1819145;78;21103;-59
2021/04/05 00:49:45;;;;;;;2.83;2.08;;;;;;;21.26;58.52;100594.38;1823588;78;21140;-59
2021/04/05 00:52:12;;;;;;;3.47;2.27;;;;;;;21.29;58.42;100592.36;1783282;78;21608;-59
2021/04/05 00:54:38;;;;;;;4.42;1.95;;;;;;;21.33;58.33;100591.12;1784341;79;21195;-59
2021/04/05 00:57:06;;;;;;;2.62;1.98;;;;;;;21.34;58.21;100594.94;1799185;78;21204;-59
2021/04/05 00:59:33;;;;;;;3.17;2.27;;;;;;;21.34;58.11;100598.30;1751605;80;21149;-59
2021/04/05 01:02:00;;;;;;;3.25;2.30;;;;;;;21.34;58.00;100594.94;1797641;78;21660;-59
2021/04/05 01:04:27;;;;;;;2.92;1.98;;;;;;;21.36;57.92;100591.85;1798843;78;21230;-59
2021/04/05 01:06:53;;;;;;;2.62;2.10;;;;;;;21.37;57.89;100589.33;1792475;78;21209;-59
2021/04/05 01:09:20;;;;;;;3.00;2.02;;;;;;;21.39;57.84;100592.56;1799179;78;21590;-59
2021/04/05 01:11:46;;;;;;;3.20;2.35;;;;;;;21.41;57.76;100593.06;1794819;78;21276;-59
2021/04/05 01:14:14;;;;;;;3.70;2.30;;;;;;;21.42;57.67;100589.17;1799945;78;21748;-59
2021/04/05 01:16:40;;;;;;;3.37;2.50;;;;;;;21.43;57.58;100590.77;1803272;78;21170;-59
2021/04/05 01:19:07;;;;;;;3.83;2.70;;;;;;;21.43;57.53;100592.75;1805402;78;22198;-59
2021/04/05 01:21:37;;;;;;;3.70;2.30;;;;;;;21.42;57.46;100593.31;1783498;79;21146;-58
2021/04/05 01:24:04;;;;;;;3.12;2.22;;;;;;;21.40;57.39;100585.90;1775753;78;21138;-62
2021/04/05 01:26:33;;;;;;;3.58;2.20;;;;;;;21.39;57.32;100592.56;1806495;78;21126;-59
2021/04/05 01:28:59;;;;;;;2.77;2.17;;;;;;;21.37;57.29;100593.48;1808986;78;21134;-59
2021/04/05 01:31:26;;;;;;;4.75;2.60;;;;;;;21.37;57.26;100593.48;1800721;78;21220;-59
2021/04/05 01:33:53;;;;;;;3.40;2.62;;;;;;;21.38;57.29;100589.02;1807389;78;21172;-59
2021/04/05 01:36:20;;;;;;;3.40;2.35;;;;;;;21.46;57.26;100591.52;1802971;78;21125;-60
2021/04/05 01:38:50;;;;;;;3.40;2.35;;;;;;;21.52;57.29;100595.72;1794405;78;21156;-59
2021/04/05 01:41:29;;;;;;;4.30;2.75;;;;;;;21.58;57.35;100597.76;1807301;78;21221;-59
2021/04/05 01:43:55;;;;;;;5.25;2.75;;;;;;;21.62;57.38;100589.85;1809744;78;21266;-59
2021/04/05 01:46:24;;;;;;;3.50;2.50;;;;;;;21.66;57.35;100596.35;1799604;78;21240;-59
2021/04/05 01:48:51;;;;;;;4.28;2.60;;;;;;;21.68;57.23;100596.85;1786667;78;21118;-59
2021/04/05 01:51:23;;;;;;;4.08;2.60;;;;;;;21.72;57.10;100603.35;1781983;79;21216;-59
2021/04/05 01:53:51;;;;;;;3.55;2.72;;;;;;;21.72;56.92;100606.13;1794839;78;21113;-59
2021/04/05 01:56:18;;;;;;;4.05;2.60;;;;;;;21.72;56.82;100604.73;1771179;79;21623;-59
2021/04/05 01:58:48;;;;;;;3.62;2.75;;;;;;;21.73;56.70;100603.57;1813030;77;21161;-59
2021/04/05 02:01:22;;;;;;;4.15;3.12;;;;;;;21.73;56.62;100605.52;1803655;77;21332;-58
2021/04/05 02:03:48;;;;;;;3.95;2.80;;;;;;;21.72;56.48;100600.59;1805549;77;21129;-59
2021/04/05 02:06:26;;;;;;;4.25;2.90;;;;;;;21.69;56.40;100596.25;1784619;78;21534;-59
2021/04/05 02:08:52;;;;;;;4.97;3.45;;;;;;;21.65;56.33;100592.52;1781085;79;22371;-59
2021/04/05 02:11:23;;;;;;;4.37;3.22;;;;;;;21.59;56.31;100594.67;1774436;79;21090;-59
2021/04/05 02:13:55;;;;;;;5.87;3.52;;;;;;;21.54;56.29;100598.17;1808160;78;20958;-59
2021/04/05 02:16:22;;;;;;;4.17;3.20;;;;;;;21.48;56.32;100601.67;1807350;78;21133;-59
2021/04/05 02:18:50;;;;;;;4.47;3.08;;;;;;;21.43;56.36;100599.67;1805307;78;21120;-59
2021/04/05 02:21:19;;;;;;;4.42;2.95;;;;;;;21.39;56.37;100593.95;1806826;78;21916;-59
2021/04/05 02:23:47;;;;;;;4.42;3.30;;;;;;;21.38;56.33;100597.31;1811070;78;21708;-59
2021/04/05 02:26:22;;;;;;;3.87;3.17;;;;;;;21.36;56.29;100592.66;1800991;77;21189;-59
2021/04/05 02:28:55;;;;;;;4.22;3.08;;;;;;;21.34;56.25;100594.15;1810895;77;21134;-59
2021/04/05 02:31:23;;;;;;;5.17;3.72;;;;;;;21.29;56.26;100591.55;1810167;77;21597;-60
2021/04/05 02:33:54;;;;;;;5.25;3.65;;;;;;;21.24;56.29;100595.29;1809162;78;21388;-60
2021/04/05 02:36:27;;;;;;;4.67;3.33;;;;;;;21.20;56.31;100592.12;1800877;78;20921;-60
2021/04/05 02:38:56;;;;;;;4.65;3.62;;;;;;;21.13;56.32;100599.50;1805004;78;21163;-60
2021/04/05 02:41:25;;;;;;;4.35;3.58;;;;;;;21.08;56.37;100600.23;1803976;78;21214;-60
2021/04/05 02:43:52;;;;;;;4.97;3.47;;;;;;;21.03;56.44;100600.39;1800305;78;21149;-59
2021/04/05 02:46:27;;;;;;;4.87;3.75;;;;;;;21.01;56.52;100594.35;1798122;78;21645;-60
2021/04/05 02:48:55;;;;;;;5.67;3.65;;;;;;;21.01;56.50;100597.12;1777453;79;21128;-59
2021/04/05 02:51:22;;;;;;;4.50;3.35;;;;;;;20.97;56.51;100596.95;1778246;79;21538;-59
2021/04/05 02:53:52;;;;;;;6.37;3.87;;;;;;;20.94;56.50;100602.58;1792513;78;21188;-60
2021/04/05 02:56:19;;;;;;;4.75;3.77;;;;;;;20.91;56.52;100600.48;1809136;78;21178;-60
2021/04/05 02:58:48;;;;;;;5.72;4.00;;;;;;;20.88;56.52;100603.05;1802836;78;21716;-60
2021/04/05 03:01:15;;;;;;;5.45;4.00;;;;;;;20.84;56.53;100608.98;1807276;78;21131;-59
2021/04/05 03:03:44;;;;;;;5.47;3.70;;;;;;;20.80;56.57;100601.91;1811338;78;21150;-60
2021/04/05 03:06:17;;;;;;;5.30;3.77;;;;;;;20.75;56.58;100606.21;1802233;78;21181;-60
2021/04/05 03:08:44;;;;;;;4.50;3.55;;;;;;;20.72;56.63;100604.67;1808093;78;21230;-60
2021/04/05 03:11:12;;;;;;;5.20;3.92;;;;;;;20.69;56.67;100606.14;1784927;78;21635;-60
2021/04/05 03:13:39;;;;;;;5.08;4.12;;;;;;;20.69;56.71;100603.37;1811233;77;21213;-60
2021/04/05 03:16:11;;;;;;;4.35;3.60;;;;;;;20.67;56.68;100602.87;1811999;78;21194;-59
2021/04/05 03:18:39;;;;;;;5.92;4.08;;;;;;;20.65;56.69;100605.16;1805206;78;21210;-59
2021/04/05 03:21:27;;;;;;;4.92;3.55;;;;;;;20.63;56.70;100607.41;1811215;78;21142;-58
2021/04/05 03:23:53;;;;;;;5.08;3.47;;;;;;;20.60;56.70;100608.63;1774589;79;21220;-59
2021/04/05 03:26:20;;;;;;;4.92;3.67;;;;;;;20.57;56.72;100607.91;1751282;81;21136;-58
2021/04/05 03:28:47;;;;;;;5.10;3.72;;;;;;;20.53;56.74;100604.97;1750690;81;21161;-59
2021/04/05 03:31:18;;;;;;;5.60;3.55;;;;;;;20.48;56.77;100602.36;1738944;81;21149;-59
2021/04/05 03:34:19;;;;;;;5.28;3.37;;;;;;;20.47;56.84;100611.21;1746893;81;21120;-59
2021/04/05 03:36:55;;;;;;;5.90;3.52;;;;;;;20.46;56.89;100607.38;1742896;81;21251;-60
2021/04/05 03:39:21;;;;;;;4.62;3.27;;;;;;;20.46;56.91;100619.81;1747802;81;21204;-60
2021/04/05 03:42:06;;;;;;;4.72;3.67;;;;;;;20.45;56.90;100611.30;1741992;81;21142;-60
2021/04/05 03:45:05;;;;;;;5.10;3.65;;;;;;;20.43;56.90;100615.75;1748885;81;21141;-58
2021/04/05 03:47:56;;;;;;;7.40;3.52;;;;;;;20.39;56.90;100616.15;1747084;81;21169;-60
2021/04/05 03:51:11;;;;;;;5.25;3.42;;;;;;;20.35;56.92;100622.07;1744805;81;22421;-60
2021/04/05 03:53:59;;;;;;;4.47;3.02;;;;;;;20.30;56.94;100619.45;1746698;81;21078;-59
2021/04/05 03:56:33;;;;;;;3.75;3.05;;;;;;;20.27;56.99;100621.45;1742891;81;21112;-60
2021/04/05 03:59:04;;;;;;;3.37;2.87;;;;;;;20.26;57.06;100620.37;1736136;81;21113;-60
2021/04/05 04:01:30;;;;;;;;;;;;;;;20.26;57.10;100614.84;1753249;81;21588;-57
2021/04/05 04:06:36;;;;;;;3.95;3.17;;;;;;;20.24;57.12;100611.61;1739265;81;21221;-57
2021/04/05 04:08:58;;;;;;;4.60;2.98;;;;;;;20.24;57.13;100622.06;1745343;81;21196;-57
2021/04/05 04:11:27;;;;;;;4.05;3.00;;;;;;;20.29;57.15;100618.34;1708909;81;21949;-57
2021/04/05 04:13:55;;;;;;;3.95;2.98;;;;;;;20.35;57.11;100623.45;1743260;81;21113;-60
2021/04/05 04:16:22;;;;;;;4.67;3.12;;;;;;;20.41;57.06;100626.89;1738384;81;21273;-58
2021/04/05 04:18:49;;;;;;;3.15;2.72;;;;;;;20.47;57.00;100626.41;1744754;81;21151;-57
2021/04/05 04:21:16;;;;;;;3.72;2.90;;;;;;;20.54;56.91;100639.75;1743481;81;21169;-57
2021/04/05 04:23:43;;;;;;;3.67;2.75;;;;;;;20.61;56.86;100633.20;1759548;80;21432;-57
2021/04/05 04:26:10;;;;;;;4.87;2.87;;;;;;;20.70;56.80;100634.60;1753288;80;21114;-57
2021/04/05 04:28:36;;;;;;;4.00;2.95;;;;;;;20.78;56.70;100636.00;1756057;80;22108;-57
2021/04/05 04:31:03;;;;;;;4.25;3.22;;;;;;;20.85;56.61;100636.89;1762985;80;21236;-56
2021/04/05 04:33:31;;;;;;;3.85;2.55;;;;;;;20.90;56.54;100634.80;1766450;80;21011;-56
2021/04/05 04:35:58;;;;;;;3.70;2.92;;;;;;;20.95;56.45;100638.79;1766466;80;21194;-57
2021/04/05 04:38:25;;;;;;;4.40;2.90;;;;;;;21.01;56.39;100639.42;1770625;80;21197;-56
2021/04/05 04:40:52;;;;;;;3.85;2.70;;;;;;;21.06;56.27;100645.37;1764958;79;21677;-57
2021/04/05 04:43:19;;;;;;;4.10;2.75;;;;;;;21.09;56.18;100645.53;1773930;79;21146;-56
2021/04/05 04:45:46;;;;;;;4.03;2.92;;;;;;;21.10;56.10;100644.40;1766324;80;21157;-56
2021/04/05 04:48:13;;;;;;;3.85;2.85;;;;;;;21.13;56.01;100645.16;1772377;79;21201;-56
2021/04/05 04:50:40;;;;;;;3.25;2.33;;;;;;;21.19;56.00;100647.20;1772081;80;21130;-56
2021/04/05 04:53:07;;;;;;;3.98;2.72;;;;;;;21.23;55.93;100645.41;1761597;80;21717;-56
2021/04/05 04:55:34;;;;;;;4.15;2.85;;;;;;;21.27;55.85;100651.91;1763621;80;21185;-56
2021/04/05 04:58:03;;;;;;;3.50;2.72;;;;;;;21.29;55.74;100655.19;1739334;80;21150;-57
2021/04/05 05:00:33;;;;;;;4.58;3.05;;;;;;;21.32;55.67;100654.52;1777372;79;21479;-56
2021/04/05 05:03:00;;;;;;;3.50;2.60;;;;;;;21.34;55.58;100659.18;1769635;80;21596;-57
2021/04/05 05:05:31;;;;;;;5.40;3.47;;;;;;;21.34;55.52;100655.03;1763365;80;21209;-56
2021/04/05 05:07:58;;;;;;;3.52;2.80;;;;;;;21.34;55.44;100656.41;1755055;80;21261;-56
2021/04/05 05:10:25;;;;;;;3.87;3.00;;;;;;;21.32;55.34;100653.14;1760067;80;21158;-57
2021/04/05 05:12:52;;;;;;;4.65;3.02;;;;;;;21.29;55.30;100651.85;1739593;79;21177;-57
2021/04/05 05:15:19;;;;;;;3.47;2.55;;;;;;;21.29;55.29;100656.00;1775155;79;21128;-57
2021/04/05 05:17:46;;;;;;;3.35;2.22;;;;;;;21.30;55.23;100655.44;1788385;79;21552;-58
2021/04/05 05:20:14;;;;;;;4.17;3.15;;;;;;;21.31;55.14;100659.24;1771589;79;21530;-58
2021/04/05 05:22:58;;;;;;;4.53;3.45;;;;;;;21.32;54.98;100662.27;1780021;78;21193;-57
2021/04/05 05:25:24;;;;;;;5.25;3.90;;;;;;;21.31;54.82;100659.24;1764468;79;21145;-57
2021/04/05 05:28:03;;;;;;;5.08;3.98;;;;;;;21.30;54.66;100663.14;1759620;79;21827;-57
2021/04/05 05:30:29;;;;;;;5.10;3.75;;;;;;;21.30;54.58;100665.13;1769953;79;21657;-57
2021/04/05 05:32:56;;;;;;;4.62;3.02;;;;;;;21.28;54.51;100666.00;1774676;79;21186;-57
2021/04/05 05:35:23;;;;;;;4.55;3.00;;;;;;;21.27;54.47;100662.98;1766213;79;21134;-57
2021/04/05 05:37:50;;;;;;;4.72;3.37;;;;;;;21.28;54.43;100666.00;1762495;79;21213;-58
2021/04/05 05:40:20;;;;;;;4.70;3.30;;;;;;;21.30;54.36;100660.97;1733038;79;21189;-57
2021/04/05 05:43:14;;;;;;;5.00;3.27;;;;;;;21.31;54.30;100662.02;1766606;79;21675;-57
2021/04/05 05:50:04;;;;;;;7.33;4.10;;;;;;;21.33;54.21;100664.46;1745534;79;21657;-56
2021/04/05 05:53:09;;;;;;;5.58;3.10;;;;;;;21.34;54.14;100665.50;1794368;78;21907;-56
2021/04/05 05:56:00;;;;;;;5.97;3.20;;;;;;;21.36;54.11;100667.39;1793298;78;21095;-57
2021/04/05 05:58:52;;;;;;;4.53;3.02;;;;;;;21.39;54.13;100667.30;1795736;78;21616;-57
2021/04/05 06:02:13;;;;;;;4.15;2.87;;;;;;;21.46;54.10;100670.97;1792751;78;21189;-57
2021/04/05 06:05:04;;;;;;;9.60;3.40;;;;;;;21.52;54.02;100671.03;1800880;78;21206;-56
2021/04/05 06:08:14;;;;;;;13.83;5.33;;;;;;;21.56;53.92;100670.62;1779155;78;21429;-56
2021/04/05 06:11:07;;;;;;;8.03;4.20;;;;;;;21.58;53.89;100674.70;1770839;79;21605;-56
2021/04/05 06:14:03;;;;;;;3.10;2.02;;;;;;;21.60;53.88;100671.62;1767577;79;21395;-57
2021/04/05 06:16:47;;;;;;;8.03;4.42;;;;;;;21.58;53.92;100676.09;1802577;77;21181;-56
2021/04/05 06:19:25;;;;;;;4.53;2.98;;;;;;;21.63;53.91;100669.57;1805649;77;21565;-57
2021/04/05 06:22:02;;;;;;;9.00;4.70;;;;;;;21.66;53.89;100673.88;1805064;78;21239;-56
2021/04/05 06:24:43;;;;;;;6.30;3.70;;;;;;;21.68;53.90;100670.80;1790826;78;21186;-57
2021/04/05 06:27:30;;;;;;;4.20;3.00;;;;;;;21.68;53.86;100668.84;1793111;78;21193;-57
2021/04/05 06:30:14;;;;;;;5.83;2.92;;;;;;;21.68;53.87;100670.23;1799780;78;21648;-57
2021/04/05 06:33:21;;;;;;;5.05;2.92;;;;;;;21.67;53.90;100672.74;1791953;78;21217;-57
2021/04/05 06:36:27;;;;;;;4.12;2.52;;;;;;;21.67;53.94;100681.05;1781685;78;21181;-58
2021/04/05 06:39:09;;;;;;;5.22;3.52;;;;;;;21.68;53.93;100678.53;1745031;80;21202;-57
2021/04/05 06:41:42;;;;;;;7.28;3.35;;;;;;;21.69;53.90;100679.31;1799537;78;22182;-58
2021/04/05 06:44:53;;;;;;;6.12;3.60;;;;;;;21.68;53.88;100681.30;1794559;78;21174;-57
2021/04/05 06:47:52;;;;;;;5.85;3.58;;;;;;;21.67;53.87;100686.59;1794892;78;21547;-57
2021/04/05 06:50:33;;;;;;;5.08;3.60;;;;;;;21.62;53.87;100682.59;1790476;78;21222;-58
2021/04/05 06:53:36;;;;;;;4.97;3.87;;;;;;;21.59;53.88;100674.95;1780554;78;21181;-57
2021/04/05 06:56:08;;;;;;;5.75;3.95;;;;;;;21.57;53.93;100681.37;1795732;78;22258;-57
2021/04/05 06:59:13;;;;;;;5.23;4.13;;;;;;;21.61;53.93;100679.58;1842327;75;27877;-57
2021/04/05 07:01:54;;;;;;;6.67;4.15;;;;;;;21.69;53.80;100676.55;1812057;77;28214;-58
2021/04/05 07:08:43;;;;;;;4.35;3.10;;;;;;;21.78;53.61;100670.43;1780818;78;21120;-58
2021/04/05 07:11:17;;;;;;;4.67;3.20;;;;;;;21.69;53.68;100668.24;1719735;80;21196;-57
2021/04/05 07:14:32;;;;;;;4.87;3.10;;;;;;;21.64;53.73;100671.20;1745214;80;21059;-57
2021/04/05 07:17:25;;;;;;;3.55;2.80;;;;;;;21.60;53.77;100665.48;1732718;80;21218;-57
2021/04/05 07:20:15;;;;;;;5.03;2.85;;;;;;;21.58;53.80;100672.50;1740765;80;22140;-57
2021/04/05 07:22:53;;;;;;;3.40;2.53;;;;;;;21.54;53.79;100683.98;1735713;80;21221;-57
2021/04/05 07:26:13;;;;;;;4.08;2.60;;;;;;;21.49;53.82;100682.77;1737619;80;21335;-57
2021/04/05 07:29:20;;;;;;;5.03;3.02;;;;;;;21.44;53.85;100686.51;1740164;82;21174;-57
2021/04/05 07:32:29;;;;;;;5.60;2.95;;;;;;;21.44;53.91;100683.74;1862728;75;22806;-57
2021/04/05 07:35:20;;;;;;;4.17;2.77;;;;;;;21.37;53.95;100683.42;1830390;77;21199;-57
2021/04/05 07:38:10;;;;;;;6.60;3.22;;;;;;;21.35;53.96;100684.30;1793471;78;21329;-57
2021/04/05 07:41:07;;;;;;;4.97;3.02;;;;;;;21.32;53.96;100684.97;1779471;79;21384;-57
2021/04/05 07:44:00;;;;;;;4.83;2.77;;;;;;;21.28;53.97;100676.50;1776243;78;21005;-57
2021/04/05 07:46:36;;;;;;;4.55;3.10;;;;;;;21.26;54.03;100682.13;1766251;80;21067;-56
2021/04/05 07:49:27;;;;;;;18.30;6.58;;;;;;;21.25;54.05;100684.08;1779155;78;21050;-56
2021/04/05 07:52:19;;;;;;;11.45;5.00;;;;;;;21.27;54.06;100691.47;1801246;78;21197;-57
2021/04/05 07:54:45;;;;;;;7.90;3.90;;;;;;;21.28;54.04;100687.58;1782795;78;21032;-56
2021/04/05 07:57:57;;;;;;;4.05;2.80;;;;;;;21.27;54.03;100683.17;1778832;78;21224;-57
2021/04/05 08:00:29;;;;;;;4.37;2.90;;;;;;;21.26;53.98;100684.90;1798472;78;21190;-57
2021/04/05 08:03:38;;;;;;;3.92;3.00;;;;;;;21.24;53.97;100685.21;1787937;78;21564;-57
2021/04/05 08:06:06;;;;;;;6.50;3.15;;;;;;;21.22;53.98;100689.42;1797541;78;21751;-57
2021/04/05 08:08:54;;;;;;;7.03;4.28;;;;;;;21.21;53.92;100680.34;1781189;78;21193;-57
2021/04/05 08:11:48;;;;;;;14.73;6.47;;;;;;;21.22;53.87;100684.70;1748049;79;21173;-57
2021/04/05 08:14:41;;;;;;;36.73;10.95;;;;;;;21.24;53.79;100684.39;1763668;80;21123;-57
2021/04/05 08:17:22;;;;;;;41.73;13.28;;;;;;;21.22;53.74;100681.13;1773607;80;21203;-58
2021/04/05 08:19:59;;;;;;;6.03;3.37;;;;;;;21.23;53.70;100684.14;1740762;78;21234;-58
2021/04/05 08:22:40;;;;;;;7.08;3.87;;;;;;;21.23;53.65;100681.37;1780263;79;21177;-57
2021/04/05 08:28:35;;;;;;;8.33;3.27;;;;;;;21.25;53.60;100679.93;1731439;80;20224;-59
2021/04/05 08:31:09;;;;;;;9.30;4.95;;;;;;;21.24;53.51;100681.63;1805055;78;21188;-57
2021/04/05 08:34:11;;;;;;;11.93;3.80;;;;;;;21.25;53.48;100682.70;1781838;79;21392;-57
2021/04/05 08:37:05;;;;;;;5.80;3.52;;;;;;;21.25;53.46;100681.88;1806788;78;21153;-57
2021/04/05 08:40:01;;;;;;;3.92;3.02;;;;;;;21.25;53.41;100681.31;1792134;78;21206;-57
2021/04/05 08:43:02;;;;;;;5.72;3.40;;;;;;;21.28;53.40;100679.84;1786294;79;21193;-59
2021/04/05 08:45:37;;;;;;;15.15;6.42;;;;;;;21.27;53.33;100676.25;1786540;78;21209;-57
2021/04/05 08:48:14;;;;;;;13.35;6.42;;;;;;;21.27;53.33;100669.34;1766826;80;21221;-58
2021/04/05 08:50:44;;;;;;;7.35;3.98;;;;;;;21.28;53.29;100677.08;1787569;78;21224;-57
2021/04/05 08:53:12;;;;;;;12.20;3.67;;;;;;;21.27;53.28;100672.10;1800596;78;21175;-56
2021/04/05 08:55:40;;;;;;;21.75;8.48;;;;;;;21.26;53.30;100673.83;1792868;78;21192;-57
2021/04/05 08:58:14;;;;;;;14.18;6.72;;;;;;;21.28;53.31;100677.08;1808307;78;21601;-57
2021/04/05 09:00:47;;;;;;;3.83;3.02;;;;;;;21.32;53.30;100675.28;1806576;78;21677;-58
2021/04/05 09:03:17;;;;;;;6.20;3.05;;;;;;;21.34;53.24;100676.57;1802515;78;21108;-56
2021/04/05 09:05:45;;;;;;;3.83;2.35;;;;;;;21.36;53.20;100667.39;1801182;78;21138;-56
2021/04/05 09:08:12;;;;;;;4.25;2.37;;;;;;;21.35;53.15;100674.05;1785563;79;21216;-56
2021/04/05 09:10:47;;;;;;;11.00;2.60;;;;;;;21.35;53.11;100667.70;1785868;79;21185;-58
2021/04/05 09:13:35;;;;;;;3.85;2.27;;;;;;;21.33;53.09;100674.15;1779985;79;21228;-56
2021/04/05 09:16:41;;;;;;;5.87;2.47;;;;;;;21.30;53.08;100663.14;1752741;79;21199;-56
2021/04/05 09:20:04;;;;;;;3.62;2.35;;;;;;;21.30;53.05;100667.30;1804372;78;21242;-56
2021/04/05 09:22:54;;;;;;;3.30;2.33;;;;;;;21.30;53.00;100658.20;1807864;78;21245;-57
2021/04/05 09:25:45;;;;;;;3.92;2.15;;;;;;;21.28;52.93;100657.14;1798846;78;21195;-57
2021/04/05 09:28:40;;;;;;;3.08;2.20;;;;;;;21.25;52.88;100652.83;1771965;78;21540;-56
2021/04/05 09:31:47;;;;;;;3.12;2.27;;;;;;;21.21;52.84;100647.13;1776201;80;21222;-60
2021/04/05 09:34:48;;;;;;;3.75;2.27;;;;;;;21.18;52.80;100653.30;1797093;78;21138;-56
2021/04/05 09:37:49;;;;;;;3.50;2.25;;;;;;;21.16;52.79;100648.67;1794156;78;21828;-57
2021/04/05 09:40:45;;;;;;;3.45;2.30;;;;;;;21.16;52.74;100640.94;1805588;78;21220;-55
2021/04/05 09:43:55;;;;;;;3.85;2.58;;;;;;;21.15;52.68;100642.89;1792119;78;22694;-55
2021/04/05 09:47:00;;;;;;;3.00;1.90;;;;;;;21.16;52.63;100642.33;1814095;78;21197;-55
2021/04/05 09:49:39;;;;;;;3.58;1.98;;;;;;;21.13;52.57;100642.98;1766630;80;21209;-58
2021/04/05 09:52:29;;;;;;;4.10;2.45;;;;;;;21.13;52.48;100645.16;1864112;75;20885;-56
2021/04/05 09:55:06;;;;;;;3.47;2.10;;;;;;;21.08;52.47;100649.45;1812677;77;21539;-57
2021/04/05 09:57:40;;;;;;;3.92;2.20;;;;;;;21.10;52.45;100655.46;1812840;77;22090;-57
2021/04/05 10:00:12;;;;;;;3.20;2.20;;;;;;;21.10;52.38;100654.64;1833468;77;21047;-57
2021/04/05 10:03:02;;;;;;;2.83;1.85;;;;;;;21.10;52.32;100661.56;1774012;80;21169;-57
2021/04/05 10:05:29;;;;;;;3.00;2.05;;;;;;;21.11;52.25;100652.95;1787129;80;20978;-57
2021/04/05 10:07:56;;;;;;;3.00;2.10;;;;;;;21.11;52.20;100648.80;1757357;80;21267;-56
2021/04/05 10:10:26;;;;;;;3.65;2.20;;;;;;;21.11;52.13;100653.52;1779337;80;21174;-57
2021/04/05 10:12:54;;;;;;;3.20;2.00;;;;;;;21.10;52.06;100646.34;1778904;80;21070;-57
2021/04/05 10:15:27;;;;;;;3.02;2.10;;;;;;;21.11;52.03;100650.19;1770407;79;21150;-57
2021/04/05 10:18:01;;;;;;;3.25;2.20;;;;;;;21.15;52.01;100636.54;1771211;79;21142;-57
2021/04/05 10:20:30;;;;;;;3.08;2.02;;;;;;;21.20;51.91;100637.20;1787951;78;21887;-57
2021/04/05 10:22:58;;;;;;;3.02;1.98;;;;;;;21.22;51.81;100632.14;1760537;79;21642;-56
2021/04/05 10:25:26;;;;;;;2.80;2.10;;;;;;;21.24;51.73;100630.44;1767782;79;21130;-57
2021/04/05 10:27:55;;;;;;;2.92;2.00;;;;;;;21.22;51.64;100629.38;1794864;78;21165;-57
2021/04/05 10:30:31;;;;;;;2.20;1.90;;;;;;;21.20;51.59;100628.90;1795083;78;21111;-56
2021/04/05 10:32:53;;;;;;;3.27;2.00;;;;;;;21.17;51.55;100620.44;1771157;78;21541;-57
2021/04/05 10:35:19;;;;;;;2.67;2.08;;;;;;;21.17;51.52;100621.27;1744925;80;21015;-57
2021/04/05 10:37:46;;;;;;;3.10;1.90;;;;;;;21.20;51.45;100626.13;1732334;80;21608;-57
2021/04/05 10:40:17;;;;;;;2.67;2.00;;;;;;;21.21;51.40;100622.23;1791654;78;21149;-57
2021/04/05 10:42:50;;;;;;;3.27;2.02;;;;;;;21.23;51.30;100613.59;1780838;79;21199;-57
2021/04/05 10:45:27;;;;;;;2.75;2.02;;;;;;;21.23;51.22;100621.33;1767599;80;21178;-57
2021/04/05 10:47:59;;;;;;;2.40;1.60;;;;;;;21.23;51.14;100621.89;1804451;78;21187;-57
2021/04/05 10:50:27;;;;;;;2.52;2.08;;;;;;;21.23;51.11;100617.73;1800437;78;21249;-57
2021/04/05 10:52:57;;;;;;;1.98;1.70;;;;;;;21.22;51.03;100616.11;1804590;78;21130;-56
2021/04/05 10:55:25;;;;;;;2.52;1.67;;;;;;;21.22;50.96;100617.48;1792649;78;21167;-56
2021/04/05 10:57:56;;;;;;;3.10;1.90;;;;;;;21.23;50.88;100608.88;1791516;78;21588;-57
2021/04/05 11:00:28;;;;;;;3.83;2.20;;;;;;;21.22;50.81;100610.57;1803295;78;21174;-56
2021/04/05 11:03:10;;;;;;;3.50;1.90;;;;;;;21.19;50.74;100609.28;1795040;78;21165;-56
2021/04/05 11:05:37;;;;;;;3.17;1.82;;;;;;;21.16;50.70;100608.56;1777343;78;21183;-57
2021/04/05 11:08:05;;;;;;;2.42;1.70;;;;;;;21.14;50.69;100607.23;1778199;79;21187;-56
2021/04/05 11:10:34;;;;;;;3.22;1.92;;;;;;;21.13;50.65;100601.48;1764848;79;21589;-57
2021/04/05 11:13:11;;;;;;;2.12;1.77;;;;;;;21.11;50.61;100596.80;1788485;79;22175;-57
2021/04/05 11:15:40;;;;;;;2.67;1.90;;;;;;;21.09;50.60;100597.72;1797849;78;21159;-57
2021/04/05 11:18:10;;;;;;;3.12;1.90;;;;;;;21.05;50.56;100586.47;1775672;80;21174;-57
2021/04/05 11:20:42;;;;;;;3.33;1.80;;;;;;;21.02;50.52;100582.97;1780237;78;21615;-57
2021/04/05 11:23:17;;;;;;;2.62;1.92;;;;;;;21.00;50.53;100581.12;1771144;80;21232;-57
2021/04/05 11:25:54;;;;;;;1.77;1.42;;;;;;;20.99;50.52;100585.02;1763971;80;21186;-56
2021/04/05 11:28:28;;;;;;;3.00;1.80;;;;;;;21.00;50.48;100580.30;1790551;78;21498;-57
2021/04/05 11:31:05;;;;;;;2.98;1.90;;;;;;;20.97;50.43;100574.83;1801403;78;21550;-58
2021/04/05 11:33:35;;;;;;;1.90;1.65;;;;;;;20.95;50.37;100575.18;1762383;80;21593;-57
2021/04/05 11:36:26;;;;;;;2.17;1.80;;;;;;;20.97;50.36;100570.13;1766190;80;21162;-58
2021/04/05 11:38:52;;;;;;;2.80;1.67;;;;;;;20.98;50.31;100580.05;1788084;79;22113;-57
2021/04/05 11:41:28;;;;;;;3.75;1.87;;;;;;;21.01;50.26;100568.08;1755227;80;21621;-57
2021/04/05 11:43:57;;;;;;;3.37;1.72;;;;;;;21.03;50.20;100561.09;1739199;81;21171;-56
2021/04/05 11:46:39;;;;;;;2.10;1.52;;;;;;;21.05;50.13;100558.02;1794072;79;21602;-56
2021/04/05 11:49:10;;;;;;;2.20;1.70;;;;;;;21.05;50.06;100561.57;1768566;79;21149;-59
2021/04/05 11:51:57;;;;;;;2.72;1.92;;;;;;;21.04;49.99;100547.52;1734583;80;21262;-57
2021/04/05 11:54:37;;;;;;;2.55;1.85;;;;;;;21.04;49.94;100547.52;1743797;80;21905;-57
2021/04/05 11:57:07;;;;;;;2.10;1.47;;;;;;;21.06;49.90;100542.45;1768589;79;21611;-57
2021/04/05 11:59:35;;;;;;;2.10;1.70;;;;;;;21.09;49.85;100539.63;1780000;79;21572;-57
2021/04/05 12:02:18;;;;;;;1.77;1.47;;;;;;;21.13;49.79;100540.62;1741505;80;21570;-57
2021/04/05 12:05:03;;;;;;;1.98;1.65;;;;;;;21.15;49.72;100536.95;1774898;79;22189;-56
2021/04/05 12:07:30;;;;;;;2.72;1.50;;;;;;;21.15;49.66;100535.56;1740290;80;21190;-57
2021/04/05 12:10:54;;;;;;;2.40;1.40;;;;;;;21.11;49.60;100535.37;1780586;79;21156;-57
2021/04/05 12:13:42;;;;;;;1.90;1.40;;;;;;;21.10;49.60;100536.52;1653344;85;21220;-57
2021/04/05 12:16:08;;;;;;;2.80;1.80;;;;;;;21.10;49.57;100531.55;1657671;85;21208;-57
2021/04/05 12:18:35;;;;;;;2.22;1.45;;;;;;;21.10;49.54;100530.16;1693950;83;21210;-57
2021/04/05 12:21:13;;;;;;;2.00;1.77;;;;;;;21.13;49.54;100528.18;1679878;83;21209;-56